Island Lookout — WDF6311 — position and weather

sailwx.info

Track history (hours):
 
Tides and Currents Weather Stations Pressure Air Temp Water Temp Dewpoint Dewpoint Depression Visibility Wind Speed Wind Dir Waves Ship Positions

Island Lookout

Owner: Stevens Towing Company Inc., Yonges Island, SC. More information available from US FCC via Universal Licensing System and Coast Guard Vessel Documentation Center.

Last reported at 2017-Mar-28 01:33 UTC. Time now 2017-Mar-28 02:24 UTC.
Position N 39°56' W 075°08'.

Length 22 m; draft 2.9 m.

Type: Towing. MMSI: 367472930.

Date/timePositionNaut miles runAvg speedWind from/ knotsBaromVisibWave heightAir tempDewpointWater temp
2017-Mar-28 01:33N 39°56' W 075°08'4 4.0
2017-Mar-28 00:33N 39°53' W 075°11'5 5.4
2017-Mar-27 23:33N 39°51' W 075°18'5 5.0
2017-Mar-27 22:33N 39°49' W 075°24'5 5.2
2017-Mar-27 21:33N 39°46' W 075°29'5 5.1
2017-Mar-27 20:33N 39°41' W 075°31'5 4.8
2017-Mar-27 19:33N 39°37' W 075°35'3 3.4
2017-Mar-27 18:33N 39°33' W 075°35'5 5.4
2017-Mar-27 17:33N 39°33' W 075°42'5 4.9
2017-Mar-27 16:33N 39°32' W 075°48'5 5.4
2017-Mar-27 15:33N 39°30' W 075°55'3 3.1
2017-Mar-27 14:33N 39°28' W 075°58'7 6.6
2017-Mar-27 13:33N 39°24' W 076°04'8 7.5
2017-Mar-27 12:33N 39°20' W 076°12'8 7.6
2017-Mar-27 11:33N 39°13' W 076°15'136 6.6
2017-Mar-26 15:08N 36°57' W 076°20'4 7.5
2017-Mar-26 14:33N 36°52' W 076°20'6 6.1
2017-Mar-26 13:33N 36°47' W 076°18'4 3.7
2017-Mar-26 12:27N 36°43' W 076°15'1 0.8
2017-Mar-26 11:28N 36°43' W 076°14'1 0.0
2017-Mar-24 19:25N 36°43' W 076°13'2 0.2
2017-Mar-24 06:28N 36°43' W 076°15'4 4.0
2017-Mar-24 05:33N 36°46' W 076°18'4 4.4
2017-Mar-24 04:33N 36°51' W 076°18'140 6.1
2017-Mar-23 05:30N 39°11' W 076°27'6 6.2
2017-Mar-23 04:27N 39°15' W 076°34'1 1.3
2017-Mar-23 03:32N 39°15' W 076°35'0 0.0
2017-Mar-23 02:32N 39°15' W 076°35'0 0.0
2017-Mar-23 01:33N 39°15' W 076°35'0 0.0
2017-Mar-23 00:31N 39°15' W 076°35'0 0.0
2017-Mar-22 23:32N 39°15' W 076°35'0 0.0
2017-Mar-22 22:28N 39°15' W 076°35'0 0.0
2017-Mar-22 21:32N 39°15' W 076°35'0 0.0
2017-Mar-22 20:33N 39°15' W 076°35'0 0.4
2017-Mar-22 19:33N 39°16' W 076°35'0 0.0
2017-Mar-22 18:33N 39°16' W 076°35'0 0.0
2017-Mar-22 17:28N 39°16' W 076°35'1 0.8
2017-Mar-22 16:32N 39°16' W 076°35'1 0.8
2017-Mar-22 15:33N 39°17' W 076°36'4 1.1
2017-Mar-22 12:23N 39°14' W 076°33'3 2.9
2017-Mar-22 11:30N 39°16' W 076°35'0 0.0
2017-Mar-22 10:32N 39°16' W 076°35'0 0.0
2017-Mar-22 08:22N 39°16' W 076°35'0 0.0
2017-Mar-22 07:26N 39°16' W 076°35'0 0.0
2017-Mar-22 06:33N 39°16' W 076°35'0 0.0
2017-Mar-22 05:33N 39°16' W 076°35'0 0.0
2017-Mar-22 04:31N 39°16' W 076°35'0 0.0
2017-Mar-22 03:31N 39°16' W 076°35'0 0.0
2017-Mar-22 02:31N 39°16' W 076°35'0 0.0
2017-Mar-22 01:32N 39°16' W 076°35'0 0.0
2017-Mar-22 00:32N 39°16' W 076°35'0 0.0
2017-Mar-21 23:33N 39°16' W 076°35'0 0.0
2017-Mar-21 22:33N 39°16' W 076°35'0 0.0
2017-Mar-21 21:31N 39°16' W 076°35'0 0.2
2017-Mar-21 20:24N 39°15' W 076°35'0 0.0
2017-Mar-21 19:31N 39°15' W 076°35'1 0.9
2017-Mar-21 18:32N 39°16' W 076°36'0 0.0
2017-Mar-21 17:29N 39°16' W 076°36'2 1.5
2017-Mar-21 16:28N 39°15' W 076°34'8 7.3
2017-Mar-21 15:26N 39°11' W 076°27'7 7.2
2017-Mar-21 14:24N 39°04' W 076°24'130 6.6
2017-Mar-20 18:33N 36°53' W 076°20'6 6.1
2017-Mar-20 17:33N 36°48' W 076°18'4 4.1
2017-Mar-20 16:33N 36°44' W 076°16'10 4.0
2017-Mar-20 14:04N 36°42' W 076°04'  
2017-Mar-18 02:33N 36°43' W 076°15'  
Track history (hours):
 
Tides and Currents Weather Stations Pressure Air Temp Water Temp Dewpoint Dewpoint Depression Visibility Wind Speed Wind Dir Waves Ship Positions

Island Lookout

Owner: Stevens Towing Company Inc., Yonges Island, SC. More information available from US FCC via Universal Licensing System and Coast Guard Vessel Documentation Center.

Last reported at 2017-Mar-28 01:33 UTC. Time now 2017-Mar-28 02:24 UTC.
Position N 39°56' W 075°08'.

Length 22 m; draft 2.9 m.

Type: Towing. MMSI: 367472930.

Date/timePositionNaut miles runAvg speedWind from/ knotsBaromVisibWave heightAir tempDewpointWater temp
2017-Mar-28 01:33N 39°56' W 075°08'4 4.0
2017-Mar-28 00:33N 39°53' W 075°11'5 5.4
2017-Mar-27 23:33N 39°51' W 075°18'5 5.0
2017-Mar-27 22:33N 39°49' W 075°24'5 5.2
2017-Mar-27 21:33N 39°46' W 075°29'5 5.1
2017-Mar-27 20:33N 39°41' W 075°31'5 4.8
2017-Mar-27 19:33N 39°37' W 075°35'3 3.4
2017-Mar-27 18:33N 39°33' W 075°35'5 5.4
2017-Mar-27 17:33N 39°33' W 075°42'5 4.9
2017-Mar-27 16:33N 39°32' W 075°48'5 5.4
2017-Mar-27 15:33N 39°30' W 075°55'3 3.1
2017-Mar-27 14:33N 39°28' W 075°58'7 6.6
2017-Mar-27 13:33N 39°24' W 076°04'8 7.5
2017-Mar-27 12:33N 39°20' W 076°12'8 7.6
2017-Mar-27 11:33N 39°13' W 076°15'136 6.6
2017-Mar-26 15:08N 36°57' W 076°20'4 7.5
2017-Mar-26 14:33N 36°52' W 076°20'6 6.1
2017-Mar-26 13:33N 36°47' W 076°18'4 3.7
2017-Mar-26 12:27N 36°43' W 076°15'1 0.8
2017-Mar-26 11:28N 36°43' W 076°14'1 0.0
2017-Mar-24 19:25N 36°43' W 076°13'2 0.2
2017-Mar-24 06:28N 36°43' W 076°15'4 4.0
2017-Mar-24 05:33N 36°46' W 076°18'4 4.4
2017-Mar-24 04:33N 36°51' W 076°18'140 6.1
2017-Mar-23 05:30N 39°11' W 076°27'6 6.2
2017-Mar-23 04:27N 39°15' W 076°34'1 1.3
2017-Mar-23 03:32N 39°15' W 076°35'0 0.0
2017-Mar-23 02:32N 39°15' W 076°35'0 0.0
2017-Mar-23 01:33N 39°15' W 076°35'0 0.0
2017-Mar-23 00:31N 39°15' W 076°35'0 0.0
2017-Mar-22 23:32N 39°15' W 076°35'0 0.0
2017-Mar-22 22:28N 39°15' W 076°35'0 0.0
2017-Mar-22 21:32N 39°15' W 076°35'0 0.0
2017-Mar-22 20:33N 39°15' W 076°35'0 0.4
2017-Mar-22 19:33N 39°16' W 076°35'0 0.0
2017-Mar-22 18:33N 39°16' W 076°35'0 0.0
2017-Mar-22 17:28N 39°16' W 076°35'1 0.8
2017-Mar-22 16:32N 39°16' W 076°35'1 0.8
2017-Mar-22 15:33N 39°17' W 076°36'4 1.1
2017-Mar-22 12:23N 39°14' W 076°33'3 2.9
2017-Mar-22 11:30N 39°16' W 076°35'0 0.0
2017-Mar-22 10:32N 39°16' W 076°35'0 0.0
2017-Mar-22 08:22N 39°16' W 076°35'0 0.0
2017-Mar-22 07:26N 39°16' W 076°35'0 0.0
2017-Mar-22 06:33N 39°16' W 076°35'0 0.0
2017-Mar-22 05:33N 39°16' W 076°35'0 0.0
2017-Mar-22 04:31N 39°16' W 076°35'0 0.0
2017-Mar-22 03:31N 39°16' W 076°35'0 0.0
2017-Mar-22 02:31N 39°16' W 076°35'0 0.0
2017-Mar-22 01:32N 39°16' W 076°35'0 0.0
2017-Mar-22 00:32N 39°16' W 076°35'0 0.0
2017-Mar-21 23:33N 39°16' W 076°35'0 0.0
2017-Mar-21 22:33N 39°16' W 076°35'0 0.0
2017-Mar-21 21:31N 39°16' W 076°35'0 0.2
2017-Mar-21 20:24N 39°15' W 076°35'0 0.0
2017-Mar-21 19:31N 39°15' W 076°35'1 0.9
2017-Mar-21 18:32N 39°16' W 076°36'0 0.0
2017-Mar-21 17:29N 39°16' W 076°36'2 1.5
2017-Mar-21 16:28N 39°15' W 076°34'8 7.3
2017-Mar-21 15:26N 39°11' W 076°27'7 7.2
2017-Mar-21 14:24N 39°04' W 076°24'130 6.6
2017-Mar-20 18:33N 36°53' W 076°20'6 6.1
2017-Mar-20 17:33N 36°48' W 076°18'4 4.1
2017-Mar-20 16:33N 36°44' W 076°16'10 4.0
2017-Mar-20 14:04N 36°42' W 076°04'  
2017-Mar-18 02:33N 36°43' W 076°15'  

Dump ship's entire track history